Terminal Aerodrome Forecast
Issued by NWS

Home | Current Version | Previous Version | Text Only | Print | Product List | Glossary On
Versions: 1 2 3 4 5 6 7 8 9 10 11 12 13
104
FTUS42 TJSJ 260520
TAFJPS
TAF
TJPS 260520Z 2606/2706 VRB04KT P6SM SCT060
     FM261300 13010KT P6SM FEW030 SCT060
     FM262300 05005KT P6SM FEW060=

USA.gov is the U.S. government's official web portal to all federal, state and local government web resources and services.